sim
Sign-in with your pilot id or email,
or register
Callsign
Passwort

Schedule Details

Flight Number: RYR1819
Departure: Eindhoven Airport (EHEH) at 18:40
Arrival: Thessaloniki International Airport (LGTS) at 21:30
Route: Ryanair Passenger Schedule. Enter filed route here before submitting Pirep.

Weather Information
Getting current METAR information for EHEH 172225Z AUTO 22004KT 9999 OVC038 16/16 Q1007 BLU
Getting current METAR information for LGTS 172220Z VRB03KT 9999 FEW025 21/16 Q1015 NOSIG

Schedule Frequency

Route Map